sensor_id;sensor_type;location;lat;lon;timestamp;P1;durP1;ratioP1;P2;durP2;ratioP2
9924;SDS011;5001;51.674;7.868;2023-05-10T00:00:39;0.20;;;0.20;;
9924;SDS011;5001;51.674;7.868;2023-05-10T00:03:06;0.30;;;0.30;;
9924;SDS011;5001;51.674;7.868;2023-05-10T00:05:34;0.40;;;0.40;;
9924;SDS011;5001;51.674;7.868;2023-05-10T00:08:01;0.20;;;0.20;;
9924;SDS011;5001;51.674;7.868;2023-05-10T00:10:28;0.40;;;0.40;;
9924;SDS011;5001;51.674;7.868;2023-05-10T00:12:55;0.30;;;0.30;;
9924;SDS011;5001;51.674;7.868;2023-05-10T00:15:22;0.30;;;0.30;;
9924;SDS011;5001;51.674;7.868;2023-05-10T00:17:48;0.20;;;0.20;;
9924;SDS011;5001;51.674;7.868;2023-05-10T00:20:16;0.30;;;0.30;;
9924;SDS011;5001;51.674;7.868;2023-05-10T00:22:43;0.20;;;0.20;;
9924;SDS011;5001;51.674;7.868;2023-05-10T00:25:10;0.30;;;0.30;;
9924;SDS011;5001;51.674;7.868;2023-05-10T00:27:37;0.30;;;0.30;;
9924;SDS011;5001;51.674;7.868;2023-05-10T00:30:04;0.20;;;0.20;;
9924;SDS011;5001;51.674;7.868;2023-05-10T00:32:34;0.20;;;0.20;;
9924;SDS011;5001;51.674;7.868;2023-05-10T00:35:01;0.30;;;0.30;;
9924;SDS011;5001;51.674;7.868;2023-05-10T00:37:28;0.30;;;0.30;;
9924;SDS011;5001;51.674;7.868;2023-05-10T00:39:55;0.30;;;0.30;;
9924;SDS011;5001;51.674;7.868;2023-05-10T00:42:22;0.30;;;0.30;;
9924;SDS011;5001;51.674;7.868;2023-05-10T00:44:51;0.30;;;0.30;;
9924;SDS011;5001;51.674;7.868;2023-05-10T00:47:18;0.20;;;0.20;;
9924;SDS011;5001;51.674;7.868;2023-05-10T00:49:46;0.30;;;0.30;;
9924;SDS011;5001;51.674;7.868;2023-05-10T00:52:13;0.20;;;0.20;;
9924;SDS011;5001;51.674;7.868;2023-05-10T00:54:40;0.20;;;0.20;;
9924;SDS011;5001;51.674;7.868;2023-05-10T00:57:07;0.30;;;0.30;;
9924;SDS011;5001;51.674;7.868;2023-05-10T00:59:35;0.30;;;0.30;;
9924;SDS011;5001;51.674;7.868;2023-05-10T01:02:02;0.30;;;0.30;;
9924;SDS011;5001;51.674;7.868;2023-05-10T01:04:29;0.30;;;0.30;;
9924;SDS011;5001;51.674;7.868;2023-05-10T01:06:56;0.30;;;0.30;;
9924;SDS011;5001;51.674;7.868;2023-05-10T01:09:24;0.30;;;0.30;;
9924;SDS011;5001;51.674;7.868;2023-05-10T01:11:55;0.30;;;0.30;;
9924;SDS011;5001;51.674;7.868;2023-05-10T01:14:22;0.20;;;0.20;;
9924;SDS011;5001;51.674;7.868;2023-05-10T01:16:51;0.23;;;0.23;;
9924;SDS011;5001;51.674;7.868;2023-05-10T01:19:20;0.23;;;0.23;;
9924;SDS011;5001;51.674;7.868;2023-05-10T01:21:59;0.30;;;0.30;;
9924;SDS011;5001;51.674;7.868;2023-05-10T01:32:55;0.30;;;0.30;;
9924;SDS011;5001;51.674;7.868;2023-05-10T01:38:18;0.50;;;0.50;;
9924;SDS011;5001;51.674;7.868;2023-05-10T01:46:58;0.20;;;0.20;;
9924;SDS011;5001;51.674;7.868;2023-05-10T01:49:34;0.25;;;0.25;;
9924;SDS011;5001;51.674;7.868;2023-05-10T01:52:08;0.20;;;0.20;;
9924;SDS011;5001;51.674;7.868;2023-05-10T01:54:38;0.20;;;0.20;;
9924;SDS011;5001;51.674;7.868;2023-05-10T01:57:30;0.20;;;0.20;;
9924;SDS011;5001;51.674;7.868;2023-05-10T02:00:00;0.30;;;0.30;;
9924;SDS011;5001;51.674;7.868;2023-05-10T02:02:40;0.52;;;0.52;;
9924;SDS011;5001;51.674;7.868;2023-05-10T02:05:11;1.00;;;0.98;;
9924;SDS011;5001;51.674;7.868;2023-05-10T02:07:40;0.20;;;0.20;;
9924;SDS011;5001;51.674;7.868;2023-05-10T02:10:09;0.30;;;0.30;;
9924;SDS011;5001;51.674;7.868;2023-05-10T02:12:39;0.20;;;0.20;;
9924;SDS011;5001;51.674;7.868;2023-05-10T02:15:10;0.30;;;0.30;;
9924;SDS011;5001;51.674;7.868;2023-05-10T02:17:39;0.30;;;0.30;;
9924;SDS011;5001;51.674;7.868;2023-05-10T02:20:08;0.30;;;0.30;;
9924;SDS011;5001;51.674;7.868;2023-05-10T02:22:36;0.30;;;0.30;;
9924;SDS011;5001;51.674;7.868;2023-05-10T02:25:06;0.30;;;0.30;;
9924;SDS011;5001;51.674;7.868;2023-05-10T02:27:35;0.30;;;0.30;;
9924;SDS011;5001;51.674;7.868;2023-05-10T02:30:04;0.30;;;0.30;;
9924;SDS011;5001;51.674;7.868;2023-05-10T02:32:34;0.30;;;0.30;;
9924;SDS011;5001;51.674;7.868;2023-05-10T02:35:02;0.30;;;0.30;;
9924;SDS011;5001;51.674;7.868;2023-05-10T02:37:30;0.22;;;0.22;;
9924;SDS011;5001;51.674;7.868;2023-05-10T02:40:01;0.30;;;0.30;;
9924;SDS011;5001;51.674;7.868;2023-05-10T02:42:33;0.35;;;0.35;;
9924;SDS011;5001;51.674;7.868;2023-05-10T02:45:05;0.20;;;0.20;;
9924;SDS011;5001;51.674;7.868;2023-05-10T02:47:37;0.30;;;0.30;;
9924;SDS011;5001;51.674;7.868;2023-05-10T02:50:04;0.20;;;0.20;;
9924;SDS011;5001;51.674;7.868;2023-05-10T02:52:36;0.30;;;0.30;;
9924;SDS011;5001;51.674;7.868;2023-05-10T02:55:09;0.30;;;0.30;;
9924;SDS011;5001;51.674;7.868;2023-05-10T02:57:41;0.30;;;0.30;;
9924;SDS011;5001;51.674;7.868;2023-05-10T03:00:16;0.30;;;0.30;;
9924;SDS011;5001;51.674;7.868;2023-05-10T03:02:43;0.30;;;0.30;;
9924;SDS011;5001;51.674;7.868;2023-05-10T03:05:10;0.30;;;0.30;;
9924;SDS011;5001;51.674;7.868;2023-05-10T03:07:37;0.30;;;0.30;;
9924;SDS011;5001;51.674;7.868;2023-05-10T03:10:04;0.40;;;0.40;;
9924;SDS011;5001;51.674;7.868;2023-05-10T03:15:47;0.30;;;0.30;;
9924;SDS011;5001;51.674;7.868;2023-05-10T03:18:22;0.37;;;0.37;;
9924;SDS011;5001;51.674;7.868;2023-05-10T03:20:56;0.30;;;0.30;;
9924;SDS011;5001;51.674;7.868;2023-05-10T03:23:27;0.30;;;0.30;;
9924;SDS011;5001;51.674;7.868;2023-05-10T03:26:00;0.32;;;0.32;;
9924;SDS011;5001;51.674;7.868;2023-05-10T03:28:29;0.40;;;0.40;;
9924;SDS011;5001;51.674;7.868;2023-05-10T03:30:57;0.30;;;0.30;;
9924;SDS011;5001;51.674;7.868;2023-05-10T03:33:26;0.20;;;0.20;;
9924;SDS011;5001;51.674;7.868;2023-05-10T03:35:53;0.20;;;0.20;;
9924;SDS011;5001;51.674;7.868;2023-05-10T03:38:20;0.40;;;0.40;;
9924;SDS011;5001;51.674;7.868;2023-05-10T03:40:47;0.30;;;0.30;;
9924;SDS011;5001;51.674;7.868;2023-05-10T03:43:14;0.30;;;0.30;;
9924;SDS011;5001;51.674;7.868;2023-05-10T03:45:41;0.30;;;0.30;;
9924;SDS011;5001;51.674;7.868;2023-05-10T03:48:08;0.20;;;0.20;;
9924;SDS011;5001;51.674;7.868;2023-05-10T03:50:35;0.32;;;0.32;;
9924;SDS011;5001;51.674;7.868;2023-05-10T03:53:02;0.30;;;0.30;;
9924;SDS011;5001;51.674;7.868;2023-05-10T03:55:29;0.35;;;0.35;;
9924;SDS011;5001;51.674;7.868;2023-05-10T03:58:00;0.50;;;0.50;;
9924;SDS011;5001;51.674;7.868;2023-05-10T04:00:27;0.30;;;0.30;;
9924;SDS011;5001;51.674;7.868;2023-05-10T04:02:55;0.30;;;0.30;;
9924;SDS011;5001;51.674;7.868;2023-05-10T04:05:22;0.20;;;0.20;;
9924;SDS011;5001;51.674;7.868;2023-05-10T04:07:51;0.30;;;0.30;;
9924;SDS011;5001;51.674;7.868;2023-05-10T04:10:18;0.30;;;0.30;;
9924;SDS011;5001;51.674;7.868;2023-05-10T04:12:45;0.30;;;0.30;;
9924;SDS011;5001;51.674;7.868;2023-05-10T04:15:12;0.27;;;0.27;;
9924;SDS011;5001;51.674;7.868;2023-05-10T04:17:39;0.20;;;0.20;;
9924;SDS011;5001;51.674;7.868;2023-05-10T04:20:07;0.30;;;0.30;;
9924;SDS011;5001;51.674;7.868;2023-05-10T04:22:34;0.30;;;0.30;;
9924;SDS011;5001;51.674;7.868;2023-05-10T04:25:01;0.30;;;0.30;;
9924;SDS011;5001;51.674;7.868;2023-05-10T04:27:28;0.30;;;0.30;;
9924;SDS011;5001;51.674;7.868;2023-05-10T04:29:55;0.30;;;0.30;;
9924;SDS011;5001;51.674;7.868;2023-05-10T04:32:22;0.30;;;0.30;;
9924;SDS011;5001;51.674;7.868;2023-05-10T04:34:49;0.20;;;0.20;;
9924;SDS011;5001;51.674;7.868;2023-05-10T04:37:19;0.27;;;0.27;;
9924;SDS011;5001;51.674;7.868;2023-05-10T04:39:47;0.30;;;0.30;;
9924;SDS011;5001;51.674;7.868;2023-05-10T04:42:14;0.40;;;0.40;;
9924;SDS011;5001;51.674;7.868;2023-05-10T04:44:41;0.32;;;0.32;;
9924;SDS011;5001;51.674;7.868;2023-05-10T04:47:08;0.30;;;0.30;;
9924;SDS011;5001;51.674;7.868;2023-05-10T04:49:38;0.20;;;0.20;;
9924;SDS011;5001;51.674;7.868;2023-05-10T04:52:04;0.30;;;0.30;;
9924;SDS011;5001;51.674;7.868;2023-05-10T04:54:32;0.40;;;0.40;;
9924;SDS011;5001;51.674;7.868;2023-05-10T04:56:58;0.30;;;0.30;;
9924;SDS011;5001;51.674;7.868;2023-05-10T04:59:25;0.30;;;0.30;;
9924;SDS011;5001;51.674;7.868;2023-05-10T05:01:52;0.20;;;0.20;;
9924;SDS011;5001;51.674;7.868;2023-05-10T05:04:19;0.20;;;0.20;;
9924;SDS011;5001;51.674;7.868;2023-05-10T05:06:46;0.20;;;0.20;;
9924;SDS011;5001;51.674;7.868;2023-05-10T05:09:13;0.30;;;0.30;;
9924;SDS011;5001;51.674;7.868;2023-05-10T05:11:40;0.30;;;0.30;;
9924;SDS011;5001;51.674;7.868;2023-05-10T05:14:07;0.20;;;0.20;;
9924;SDS011;5001;51.674;7.868;2023-05-10T05:16:34;0.30;;;0.30;;
9924;SDS011;5001;51.674;7.868;2023-05-10T05:19:02;0.30;;;0.30;;
9924;SDS011;5001;51.674;7.868;2023-05-10T05:21:29;0.30;;;0.30;;
9924;SDS011;5001;51.674;7.868;2023-05-10T05:23:56;0.30;;;0.30;;
9924;SDS011;5001;51.674;7.868;2023-05-10T05:26:23;0.30;;;0.30;;
9924;SDS011;5001;51.674;7.868;2023-05-10T05:28:50;0.30;;;0.30;;
9924;SDS011;5001;51.674;7.868;2023-05-10T05:31:20;0.30;;;0.30;;
9924;SDS011;5001;51.674;7.868;2023-05-10T05:33:47;0.20;;;0.20;;
9924;SDS011;5001;51.674;7.868;2023-05-10T05:36:14;0.30;;;0.30;;
9924;SDS011;5001;51.674;7.868;2023-05-10T05:38:41;0.30;;;0.30;;
9924;SDS011;5001;51.674;7.868;2023-05-10T05:41:09;0.30;;;0.30;;
9924;SDS011;5001;51.674;7.868;2023-05-10T05:43:36;0.30;;;0.30;;
9924;SDS011;5001;51.674;7.868;2023-05-10T05:46:04;0.40;;;0.40;;
9924;SDS011;5001;51.674;7.868;2023-05-10T05:48:31;0.20;;;0.20;;
9924;SDS011;5001;51.674;7.868;2023-05-10T05:50:58;0.20;;;0.20;;
9924;SDS011;5001;51.674;7.868;2023-05-10T05:53:25;0.20;;;0.20;;
9924;SDS011;5001;51.674;7.868;2023-05-10T05:58:24;0.30;;;0.30;;
9924;SDS011;5001;51.674;7.868;2023-05-10T06:00:52;0.30;;;0.30;;
9924;SDS011;5001;51.674;7.868;2023-05-10T06:03:19;0.30;;;0.30;;
9924;SDS011;5001;51.674;7.868;2023-05-10T06:05:47;0.35;;;0.35;;
9924;SDS011;5001;51.674;7.868;2023-05-10T06:08:14;0.30;;;0.30;;
9924;SDS011;5001;51.674;7.868;2023-05-10T06:10:41;0.30;;;0.30;;
9924;SDS011;5001;51.674;7.868;2023-05-10T06:13:08;0.30;;;0.30;;
9924;SDS011;5001;51.674;7.868;2023-05-10T06:15:36;0.20;;;0.20;;
9924;SDS011;5001;51.674;7.868;2023-05-10T06:18:03;0.40;;;0.40;;
9924;SDS011;5001;51.674;7.868;2023-05-10T06:20:30;0.30;;;0.30;;
9924;SDS011;5001;51.674;7.868;2023-05-10T06:22:58;15.50;;;9.48;;
9924;SDS011;5001;51.674;7.868;2023-05-10T06:25:25;0.30;;;0.30;;
9924;SDS011;5001;51.674;7.868;2023-05-10T06:27:52;0.30;;;0.30;;
9924;SDS011;5001;51.674;7.868;2023-05-10T06:30:24;0.30;;;0.30;;
9924;SDS011;5001;51.674;7.868;2023-05-10T06:32:54;0.30;;;0.30;;
9924;SDS011;5001;51.674;7.868;2023-05-10T06:35:21;0.30;;;0.30;;
9924;SDS011;5001;51.674;7.868;2023-05-10T06:37:49;0.20;;;0.20;;
9924;SDS011;5001;51.674;7.868;2023-05-10T06:40:17;0.30;;;0.30;;
9924;SDS011;5001;51.674;7.868;2023-05-10T06:42:45;0.35;;;0.35;;
9924;SDS011;5001;51.674;7.868;2023-05-10T06:45:13;0.30;;;0.30;;
9924;SDS011;5001;51.674;7.868;2023-05-10T06:47:41;0.30;;;0.30;;
9924;SDS011;5001;51.674;7.868;2023-05-10T06:50:09;0.30;;;0.30;;
9924;SDS011;5001;51.674;7.868;2023-05-10T06:52:37;0.30;;;0.30;;
9924;SDS011;5001;51.674;7.868;2023-05-10T06:55:05;0.20;;;0.20;;
9924;SDS011;5001;51.674;7.868;2023-05-10T06:57:32;0.30;;;0.30;;
9924;SDS011;5001;51.674;7.868;2023-05-10T07:00:00;0.28;;;0.28;;
9924;SDS011;5001;51.674;7.868;2023-05-10T07:02:27;0.30;;;0.30;;
9924;SDS011;5001;51.674;7.868;2023-05-10T07:04:54;0.30;;;0.30;;
9924;SDS011;5001;51.674;7.868;2023-05-10T07:07:22;0.28;;;0.28;;
9924;SDS011;5001;51.674;7.868;2023-05-10T07:09:49;0.30;;;0.30;;
9924;SDS011;5001;51.674;7.868;2023-05-10T07:12:16;0.30;;;0.30;;
9924;SDS011;5001;51.674;7.868;2023-05-10T07:14:43;0.30;;;0.30;;
9924;SDS011;5001;51.674;7.868;2023-05-10T07:17:11;0.30;;;0.30;;
9924;SDS011;5001;51.674;7.868;2023-05-10T07:19:38;0.20;;;0.20;;
9924;SDS011;5001;51.674;7.868;2023-05-10T07:22:05;0.30;;;0.30;;
9924;SDS011;5001;51.674;7.868;2023-05-10T07:24:32;0.30;;;0.30;;
9924;SDS011;5001;51.674;7.868;2023-05-10T07:26:59;0.30;;;0.30;;
9924;SDS011;5001;51.674;7.868;2023-05-10T07:29:26;0.30;;;0.30;;
9924;SDS011;5001;51.674;7.868;2023-05-10T07:31:53;0.30;;;0.30;;
9924;SDS011;5001;51.674;7.868;2023-05-10T07:34:24;0.30;;;0.30;;
9924;SDS011;5001;51.674;7.868;2023-05-10T07:36:51;0.30;;;0.30;;
9924;SDS011;5001;51.674;7.868;2023-05-10T07:39:19;0.20;;;0.20;;
9924;SDS011;5001;51.674;7.868;2023-05-10T07:41:53;0.20;;;0.20;;
9924;SDS011;5001;51.674;7.868;2023-05-10T07:44:21;0.20;;;0.20;;
9924;SDS011;5001;51.674;7.868;2023-05-10T07:46:48;0.30;;;0.30;;
9924;SDS011;5001;51.674;7.868;2023-05-10T07:49:16;0.20;;;0.20;;
9924;SDS011;5001;51.674;7.868;2023-05-10T07:51:43;0.20;;;0.20;;
9924;SDS011;5001;51.674;7.868;2023-05-10T07:54:10;0.20;;;0.20;;
9924;SDS011;5001;51.674;7.868;2023-05-10T07:56:37;0.20;;;0.20;;
9924;SDS011;5001;51.674;7.868;2023-05-10T07:59:04;0.22;;;0.22;;
9924;SDS011;5001;51.674;7.868;2023-05-10T08:01:34;0.20;;;0.20;;
9924;SDS011;5001;51.674;7.868;2023-05-10T08:04:01;0.13;;;0.13;;
9924;SDS011;5001;51.674;7.868;2023-05-10T08:06:29;0.10;;;0.10;;
9924;SDS011;5001;51.674;7.868;2023-05-10T08:08:56;0.10;;;0.10;;
9924;SDS011;5001;51.674;7.868;2023-05-10T08:11:24;0.20;;;0.20;;
9924;SDS011;5001;51.674;7.868;2023-05-10T08:13:51;0.30;;;0.30;;
9924;SDS011;5001;51.674;7.868;2023-05-10T08:16:20;0.10;;;0.10;;
9924;SDS011;5001;51.674;7.868;2023-05-10T08:18:49;0.20;;;0.20;;
9924;SDS011;5001;51.674;7.868;2023-05-10T08:21:17;0.20;;;0.20;;
9924;SDS011;5001;51.674;7.868;2023-05-10T08:23:44;0.20;;;0.20;;
9924;SDS011;5001;51.674;7.868;2023-05-10T08:26:11;0.10;;;0.10;;
9924;SDS011;5001;51.674;7.868;2023-05-10T08:28:38;0.20;;;0.20;;
9924;SDS011;5001;51.674;7.868;2023-05-10T08:31:06;0.17;;;0.17;;
9924;SDS011;5001;51.674;7.868;2023-05-10T08:33:33;0.20;;;0.20;;
9924;SDS011;5001;51.674;7.868;2023-05-10T08:36:00;0.40;;;0.40;;
9924;SDS011;5001;51.674;7.868;2023-05-10T08:38:27;0.13;;;0.13;;
9924;SDS011;5001;51.674;7.868;2023-05-10T08:40:54;0.63;;;0.63;;
9924;SDS011;5001;51.674;7.868;2023-05-10T08:43:26;0.20;;;0.20;;
9924;SDS011;5001;51.674;7.868;2023-05-10T08:45:55;0.10;;;0.10;;
9924;SDS011;5001;51.674;7.868;2023-05-10T08:48:23;0.10;;;0.10;;
9924;SDS011;5001;51.674;7.868;2023-05-10T08:50:52;0.20;;;0.20;;
9924;SDS011;5001;51.674;7.868;2023-05-10T08:53:24;0.10;;;0.10;;
9924;SDS011;5001;51.674;7.868;2023-05-10T08:55:53;0.20;;;0.20;;
9924;SDS011;5001;51.674;7.868;2023-05-10T08:58:21;0.10;;;0.10;;
9924;SDS011;5001;51.674;7.868;2023-05-10T09:00:49;0.20;;;0.20;;
9924;SDS011;5001;51.674;7.868;2023-05-10T09:03:17;0.20;;;0.20;;
9924;SDS011;5001;51.674;7.868;2023-05-10T09:05:44;0.10;;;0.10;;
9924;SDS011;5001;51.674;7.868;2023-05-10T09:08:12;0.20;;;0.20;;
9924;SDS011;5001;51.674;7.868;2023-05-10T09:10:45;0.20;;;0.20;;
9924;SDS011;5001;51.674;7.868;2023-05-10T09:13:14;1.77;;;0.90;;
9924;SDS011;5001;51.674;7.868;2023-05-10T09:15:43;0.20;;;0.20;;
9924;SDS011;5001;51.674;7.868;2023-05-10T09:18:11;0.30;;;0.30;;
9924;SDS011;5001;51.674;7.868;2023-05-10T09:20:39;0.20;;;0.20;;
9924;SDS011;5001;51.674;7.868;2023-05-10T09:23:06;0.20;;;0.20;;
9924;SDS011;5001;51.674;7.868;2023-05-10T09:25:34;0.90;;;0.90;;
9924;SDS011;5001;51.674;7.868;2023-05-10T09:28:01;0.20;;;0.20;;
9924;SDS011;5001;51.674;7.868;2023-05-10T09:30:29;0.10;;;0.10;;
9924;SDS011;5001;51.674;7.868;2023-05-10T09:32:57;0.10;;;0.10;;
9924;SDS011;5001;51.674;7.868;2023-05-10T09:35:27;0.10;;;0.10;;
9924;SDS011;5001;51.674;7.868;2023-05-10T09:37:56;0.20;;;0.20;;
9924;SDS011;5001;51.674;7.868;2023-05-10T09:40:27;0.10;;;0.10;;
9924;SDS011;5001;51.674;7.868;2023-05-10T09:45:29;0.20;;;0.20;;
9924;SDS011;5001;51.674;7.868;2023-05-10T09:47:57;0.20;;;0.20;;
9924;SDS011;5001;51.674;7.868;2023-05-10T09:50:25;0.20;;;0.20;;
9924;SDS011;5001;51.674;7.868;2023-05-10T09:52:57;0.63;;;0.63;;
9924;SDS011;5001;51.674;7.868;2023-05-10T09:58:04;0.10;;;0.10;;
9924;SDS011;5001;51.674;7.868;2023-05-10T10:00:36;0.20;;;0.20;;
9924;SDS011;5001;51.674;7.868;2023-05-10T10:03:04;0.10;;;0.10;;
9924;SDS011;5001;51.674;7.868;2023-05-10T10:05:35;0.20;;;0.20;;
9924;SDS011;5001;51.674;7.868;2023-05-10T10:08:03;0.20;;;0.20;;
9924;SDS011;5001;51.674;7.868;2023-05-10T10:10:31;2.65;;;1.75;;
9924;SDS011;5001;51.674;7.868;2023-05-10T10:12:59;0.57;;;0.57;;
9924;SDS011;5001;51.674;7.868;2023-05-10T10:15:26;0.20;;;0.20;;
9924;SDS011;5001;51.674;7.868;2023-05-10T10:17:53;0.28;;;0.28;;
9924;SDS011;5001;51.674;7.868;2023-05-10T10:20:21;0.10;;;0.10;;
9924;SDS011;5001;51.674;7.868;2023-05-10T10:22:49;0.20;;;0.20;;
9924;SDS011;5001;51.674;7.868;2023-05-10T10:25:16;0.25;;;0.25;;
9924;SDS011;5001;51.674;7.868;2023-05-10T10:30:23;0.15;;;0.15;;
9924;SDS011;5001;51.674;7.868;2023-05-10T10:36:02;0.20;;;0.20;;
9924;SDS011;5001;51.674;7.868;2023-05-10T10:39:07;0.20;;;0.20;;
9924;SDS011;5001;51.674;7.868;2023-05-10T10:57:42;0.17;;;0.17;;
9924;SDS011;5001;51.674;7.868;2023-05-10T11:00:17;0.20;;;0.20;;
9924;SDS011;5001;51.674;7.868;2023-05-10T11:02:45;0.20;;;0.20;;
9924;SDS011;5001;51.674;7.868;2023-05-10T11:05:35;0.20;;;0.20;;
9924;SDS011;5001;51.674;7.868;2023-05-10T11:10:49;0.20;;;0.20;;
9924;SDS011;5001;51.674;7.868;2023-05-10T11:13:26;0.10;;;0.10;;
9924;SDS011;5001;51.674;7.868;2023-05-10T11:15:58;0.20;;;0.20;;
9924;SDS011;5001;51.674;7.868;2023-05-10T11:18:36;0.20;;;0.20;;
9924;SDS011;5001;51.674;7.868;2023-05-10T11:21:04;0.88;;;0.88;;
9924;SDS011;5001;51.674;7.868;2023-05-10T11:26:11;0.20;;;0.20;;
9924;SDS011;5001;51.674;7.868;2023-05-10T11:28:44;0.10;;;0.10;;
9924;SDS011;5001;51.674;7.868;2023-05-10T11:31:16;0.20;;;0.20;;
9924;SDS011;5001;51.674;7.868;2023-05-10T11:33:44;0.10;;;0.10;;
9924;SDS011;5001;51.674;7.868;2023-05-10T11:36:14;0.10;;;0.10;;
9924;SDS011;5001;51.674;7.868;2023-05-10T11:38:42;0.20;;;0.20;;
9924;SDS011;5001;51.674;7.868;2023-05-10T11:41:09;0.20;;;0.20;;
9924;SDS011;5001;51.674;7.868;2023-05-10T11:43:41;0.20;;;0.20;;
9924;SDS011;5001;51.674;7.868;2023-05-10T11:46:12;0.28;;;0.28;;
9924;SDS011;5001;51.674;7.868;2023-05-10T11:48:40;0.20;;;0.20;;
9924;SDS011;5001;51.674;7.868;2023-05-10T11:51:08;0.20;;;0.20;;
9924;SDS011;5001;51.674;7.868;2023-05-10T11:53:36;9.52;;;2.47;;
9924;SDS011;5001;51.674;7.868;2023-05-10T11:56:10;0.10;;;0.10;;
9924;SDS011;5001;51.674;7.868;2023-05-10T11:58:38;0.30;;;0.30;;
9924;SDS011;5001;51.674;7.868;2023-05-10T12:01:06;0.20;;;0.20;;
9924;SDS011;5001;51.674;7.868;2023-05-10T12:03:35;3.30;;;2.33;;
9924;SDS011;5001;51.674;7.868;2023-05-10T12:06:03;0.20;;;0.20;;
9924;SDS011;5001;51.674;7.868;2023-05-10T12:08:30;0.20;;;0.20;;
9924;SDS011;5001;51.674;7.868;2023-05-10T12:11:05;0.28;;;0.28;;
9924;SDS011;5001;51.674;7.868;2023-05-10T12:13:37;0.30;;;0.30;;
9924;SDS011;5001;51.674;7.868;2023-05-10T12:18:53;0.20;;;0.20;;
9924;SDS011;5001;51.674;7.868;2023-05-10T12:21:22;0.20;;;0.20;;
9924;SDS011;5001;51.674;7.868;2023-05-10T12:23:53;0.20;;;0.20;;
9924;SDS011;5001;51.674;7.868;2023-05-10T12:26:22;0.20;;;0.20;;
9924;SDS011;5001;51.674;7.868;2023-05-10T12:28:50;0.20;;;0.20;;
9924;SDS011;5001;51.674;7.868;2023-05-10T12:31:17;0.30;;;0.30;;
9924;SDS011;5001;51.674;7.868;2023-05-10T12:33:45;0.20;;;0.20;;
9924;SDS011;5001;51.674;7.868;2023-05-10T12:36:14;0.20;;;0.20;;
9924;SDS011;5001;51.674;7.868;2023-05-10T12:38:42;0.20;;;0.20;;
9924;SDS011;5001;51.674;7.868;2023-05-10T12:41:11;0.50;;;0.50;;
9924;SDS011;5001;51.674;7.868;2023-05-10T12:43:39;0.20;;;0.20;;
9924;SDS011;5001;51.674;7.868;2023-05-10T12:46:10;0.30;;;0.30;;
9924;SDS011;5001;51.674;7.868;2023-05-10T12:48:39;0.20;;;0.20;;
9924;SDS011;5001;51.674;7.868;2023-05-10T12:51:07;0.20;;;0.20;;
9924;SDS011;5001;51.674;7.868;2023-05-10T12:53:35;0.20;;;0.20;;
9924;SDS011;5001;51.674;7.868;2023-05-10T12:56:03;0.30;;;0.30;;
9924;SDS011;5001;51.674;7.868;2023-05-10T12:58:30;23.75;;;21.05;;
9924;SDS011;5001;51.674;7.868;2023-05-10T13:01:01;32.00;;;23.73;;
9924;SDS011;5001;51.674;7.868;2023-05-10T13:03:32;23.73;;;19.90;;
9924;SDS011;5001;51.674;7.868;2023-05-10T13:05:59;22.30;;;19.77;;
9924;SDS011;5001;51.674;7.868;2023-05-10T13:08:26;24.92;;;21.80;;
9924;SDS011;5001;51.674;7.868;2023-05-10T13:10:55;23.25;;;20.75;;
9924;SDS011;5001;51.674;7.868;2023-05-10T13:13:22;24.08;;;20.30;;
9924;SDS011;5001;51.674;7.868;2023-05-10T13:15:50;24.05;;;21.52;;
9924;SDS011;5001;51.674;7.868;2023-05-10T13:18:16;31.65;;;22.52;;
9924;SDS011;5001;51.674;7.868;2023-05-10T13:20:44;26.50;;;22.50;;
9924;SDS011;5001;51.674;7.868;2023-05-10T13:23:11;27.17;;;22.67;;
9924;SDS011;5001;51.674;7.868;2023-05-10T13:25:38;28.25;;;23.75;;
9924;SDS011;5001;51.674;7.868;2023-05-10T13:28:05;27.88;;;24.88;;
9924;SDS011;5001;51.674;7.868;2023-05-10T13:30:32;29.00;;;25.73;;
9924;SDS011;5001;51.674;7.868;2023-05-10T13:32:59;29.25;;;25.92;;
9924;SDS011;5001;51.674;7.868;2023-05-10T13:35:26;28.75;;;25.65;;
9924;SDS011;5001;51.674;7.868;2023-05-10T13:37:53;27.90;;;24.75;;
9924;SDS011;5001;51.674;7.868;2023-05-10T13:40:23;29.05;;;23.45;;
9924;SDS011;5001;51.674;7.868;2023-05-10T13:42:50;30.10;;;24.27;;
9924;SDS011;5001;51.674;7.868;2023-05-10T13:45:17;27.60;;;22.42;;
9924;SDS011;5001;51.674;7.868;2023-05-10T13:47:44;23.08;;;17.67;;
9924;SDS011;5001;51.674;7.868;2023-05-10T13:50:11;22.17;;;19.17;;
9924;SDS011;5001;51.674;7.868;2023-05-10T13:52:38;24.30;;;18.80;;
9924;SDS011;5001;51.674;7.868;2023-05-10T13:55:05;22.65;;;18.15;;
9924;SDS011;5001;51.674;7.868;2023-05-10T13:57:33;19.35;;;14.98;;
9924;SDS011;5001;51.674;7.868;2023-05-10T14:00:02;18.85;;;15.48;;
9924;SDS011;5001;51.674;7.868;2023-05-10T14:02:33;18.10;;;14.52;;
9924;SDS011;5001;51.674;7.868;2023-05-10T14:05:00;15.93;;;13.80;;
9924;SDS011;5001;51.674;7.868;2023-05-10T14:07:28;20.10;;;14.52;;
9924;SDS011;5001;51.674;7.868;2023-05-10T14:09:56;21.23;;;14.88;;
9924;SDS011;5001;51.674;7.868;2023-05-10T14:12:23;15.32;;;12.40;;
9924;SDS011;5001;51.674;7.868;2023-05-10T14:14:49;15.35;;;11.02;;
9924;SDS011;5001;51.674;7.868;2023-05-10T14:17:17;11.85;;;10.60;;
9924;SDS011;5001;51.674;7.868;2023-05-10T14:19:44;13.65;;;11.18;;
9924;SDS011;5001;51.674;7.868;2023-05-10T14:22:11;13.88;;;10.70;;
9924;SDS011;5001;51.674;7.868;2023-05-10T14:24:38;14.45;;;12.40;;
9924;SDS011;5001;51.674;7.868;2023-05-10T14:27:05;14.35;;;10.85;;
9924;SDS011;5001;51.674;7.868;2023-05-10T14:29:32;11.65;;;10.45;;
9924;SDS011;5001;51.674;7.868;2023-05-10T14:31:59;11.52;;;10.32;;
9924;SDS011;5001;51.674;7.868;2023-05-10T14:34:26;13.45;;;10.45;;
9924;SDS011;5001;51.674;7.868;2023-05-10T14:36:53;11.55;;;9.82;;
9924;SDS011;5001;51.674;7.868;2023-05-10T14:39:20;11.43;;;9.50;;
9924;SDS011;5001;51.674;7.868;2023-05-10T14:41:47;9.80;;;8.80;;
9924;SDS011;5001;51.674;7.868;2023-05-10T14:44:14;10.20;;;8.90;;
9924;SDS011;5001;51.674;7.868;2023-05-10T14:46:41;12.85;;;9.35;;
9924;SDS011;5001;51.674;7.868;2023-05-10T14:49:08;10.40;;;8.82;;
9924;SDS011;5001;51.674;7.868;2023-05-10T14:51:35;12.05;;;8.43;;
9924;SDS011;5001;51.674;7.868;2023-05-10T14:54:03;8.93;;;8.00;;
9924;SDS011;5001;51.674;7.868;2023-05-10T14:56:30;11.07;;;8.60;;
9924;SDS011;5001;51.674;7.868;2023-05-10T14:58:57;11.65;;;8.57;;
9924;SDS011;5001;51.674;7.868;2023-05-10T15:01:25;9.88;;;7.25;;
9924;SDS011;5001;51.674;7.868;2023-05-10T15:03:53;10.88;;;8.25;;
9924;SDS011;5001;51.674;7.868;2023-05-10T15:06:23;9.80;;;8.80;;
9924;SDS011;5001;51.674;7.868;2023-05-10T15:08:58;10.80;;;9.65;;
9924;SDS011;5001;51.674;7.868;2023-05-10T15:11:25;12.13;;;9.70;;
9924;SDS011;5001;51.674;7.868;2023-05-10T15:13:52;13.43;;;10.18;;
9924;SDS011;5001;51.674;7.868;2023-05-10T15:16:19;14.18;;;12.63;;
9924;SDS011;5001;51.674;7.868;2023-05-10T15:18:46;13.40;;;11.60;;
9924;SDS011;5001;51.674;7.868;2023-05-10T15:21:14;12.63;;;11.38;;
9924;SDS011;5001;51.674;7.868;2023-05-10T15:23:41;14.32;;;12.68;;
9924;SDS011;5001;51.674;7.868;2023-05-10T15:26:08;15.20;;;12.77;;
9924;SDS011;5001;51.674;7.868;2023-05-10T15:28:35;17.25;;;14.25;;
9924;SDS011;5001;51.674;7.868;2023-05-10T15:31:02;13.77;;;12.35;;
9924;SDS011;5001;51.674;7.868;2023-05-10T15:33:29;13.82;;;12.40;;
9924;SDS011;5001;51.674;7.868;2023-05-10T15:35:56;18.73;;;13.18;;
9924;SDS011;5001;51.674;7.868;2023-05-10T15:38:23;14.80;;;13.30;;
9924;SDS011;5001;51.674;7.868;2023-05-10T15:40:50;14.02;;;12.27;;
9924;SDS011;5001;51.674;7.868;2023-05-10T15:43:21;14.70;;;13.10;;
9924;SDS011;5001;51.674;7.868;2023-05-10T15:45:48;15.00;;;13.32;;
9924;SDS011;5001;51.674;7.868;2023-05-10T15:48:15;16.85;;;15.00;;
9924;SDS011;5001;51.674;7.868;2023-05-10T15:50:42;15.98;;;14.38;;
9924;SDS011;5001;51.674;7.868;2023-05-10T15:53:10;16.35;;;13.98;;
9924;SDS011;5001;51.674;7.868;2023-05-10T15:55:37;18.38;;;14.68;;
9924;SDS011;5001;51.674;7.868;2023-05-10T15:58:04;18.85;;;15.05;;
9924;SDS011;5001;51.674;7.868;2023-05-10T16:00:31;15.85;;;13.30;;
9924;SDS011;5001;51.674;7.868;2023-05-10T16:02:58;18.17;;;14.77;;
9924;SDS011;5001;51.674;7.868;2023-05-10T16:05:25;26.30;;;19.27;;
9924;SDS011;5001;51.674;7.868;2023-05-10T16:07:55;21.23;;;16.83;;
9924;SDS011;5001;51.674;7.868;2023-05-10T16:10:23;22.40;;;17.45;;
9924;SDS011;5001;51.674;7.868;2023-05-10T16:12:50;16.48;;;14.27;;
9924;SDS011;5001;51.674;7.868;2023-05-10T16:15:18;15.52;;;13.95;;